Brunei International Airport
WBSB : now visible

Airfield :











YOU CAN JOIN US ON...

 
LOGIN :

Register | Disclaimer

   EN    FR    IT 

 









Legend :    VFR   Marginal VFR   IFR   Intensive IFR   Very Intensive IFR
Visi :
Ceiling :
>= 8 km
>= 3000ft
5 to 8 km
1000 to 3000 ft
1500m to 5 km
500 to 1000 ft
800 to 1500m
200 to 500 ft
< 800m
< 200 ft
Symbols :   Thunderstorms  Fog  Heavy snow  Heavy precipitations  Wind > 20 kt






- Airport Elevation : 73 ft
- IATA code : BWN


WBSB - Brunei International

CURRENT METAR :
  • 281230Z 13002KT 9000 -RA FEW005 SCT014 BKN150 25/24 Q1010 NOSIG

EXPIRED METARs :
  • 281200Z 22004KT 7000 -RA FEW005 SCT014 BKN150 25/24 Q1010 TEMPO 7000 +RA
  • 281130Z 21004KT 7000 -RA FEW005 SCT014 BKN150 25/24 Q1009 TEMPO 2000 +SHRA
  • 281100Z 16004KT 6000 -SHRA FEW005 SCT014 FEW015CB BKN140 25/23 Q1009 TEMPO 2000 +SHRA
  • 281030Z 17004KT 3000 SHRA FEW005 SCT014 FEW015CB BKN140 25/24 Q1009 TEMPO 2000 +SHRA
  • 281000Z 20013KT 5000 -SHRA FEW005 SCT014 FEW015CB BKN140 27/24 Q1008 TEMPO 4000 SHRA

TAF TAF WBSB
Valid from the 28 at 12:00 until the 29 at 18:00 UTC


281100Z 2812/2918 24006KT 9999 SCT014 FEW015CB
TEMPO 2812/2816 6000 SHRA TSRA
BECMG 2816/2818 20003KT
WBFC FIR / Asia



MET'MAP, your aeronautical weather chart ! - Copyright ORBIFLY December 2007 - Disclaimer

ORBIFLY MET'MAP TEAM :

Programming & Development : Alexandra Zaïnal
Concept & original design : Baudouin d'Aumeries
Assistance for programming : Marc-Olivier Méhu
Technical & hardware support : Manuel Goepfert

Contact : metmap@orbifly.com




SOURCES & CREDITS :

   NOAA       Earth
Advisory